createdAt,value
2022-10-11T00:00:17.941Z,9.67
2022-10-11T00:02:45.584Z,9.66
2022-10-11T00:05:13.478Z,9.67
2022-10-11T00:07:41.453Z,9.60
2022-10-11T00:10:09.676Z,9.62
2022-10-11T00:12:37.909Z,9.61
2022-10-11T00:15:06.327Z,9.58
2022-10-11T00:17:34.685Z,9.57
2022-10-11T00:20:04.086Z,9.54
2022-10-11T00:22:31.893Z,9.56
2022-10-11T00:24:59.686Z,9.63
2022-10-11T00:27:27.616Z,9.62
2022-10-11T00:29:55.616Z,9.60
2022-10-11T00:32:23.327Z,9.56
2022-10-11T00:34:52.161Z,9.60
2022-10-11T00:37:20.276Z,9.56
2022-10-11T00:39:47.956Z,9.51
2022-10-11T00:42:16.809Z,9.49
2022-10-11T00:44:46.678Z,9.53
2022-10-11T00:47:21.483Z,9.52
2022-10-11T00:49:59.547Z,9.51
2022-10-11T00:52:31.927Z,9.50
2022-10-11T00:55:05.260Z,9.51
2022-10-11T00:57:35.127Z,9.49
2022-10-11T01:00:03.356Z,9.47
2022-10-11T01:02:31.241Z,9.49
2022-10-11T01:05:25.242Z,9.48
2022-10-11T01:07:47.286Z,9.47
2022-10-11T01:10:14.995Z,9.48
2022-10-11T01:13:06.289Z,9.46
2022-10-11T01:15:37.444Z,9.41
2022-10-11T01:18:21.998Z,9.44
2022-10-11T01:21:00.591Z,9.45
2022-10-11T01:23:56.301Z,9.44
2022-10-11T01:26:42.097Z,9.46
2022-10-11T01:29:21.759Z,9.45
2022-10-11T01:32:15.457Z,9.44
2022-10-11T01:34:56.171Z,9.39
2022-10-11T01:37:47.851Z,9.38
2022-10-11T01:40:19.933Z,9.43
2022-10-11T01:42:47.512Z,9.40
2022-10-11T01:45:16.371Z,9.45
2022-10-11T01:47:45.968Z,9.47
2022-10-11T01:50:43.566Z,9.48
2022-10-11T01:53:39.675Z,9.41
2022-10-11T01:56:28.924Z,9.43
2022-10-11T01:59:11.348Z,9.43
2022-10-11T02:01:57.375Z,9.40
2022-10-11T02:04:30.480Z,9.45
2022-10-11T02:07:24.518Z,9.39
2022-10-11T02:10:05.952Z,9.33
2022-10-11T02:12:39.868Z,9.27
2022-10-11T02:15:09.339Z,9.31
2022-10-11T02:17:40.947Z,9.28
2022-10-11T02:20:11.940Z,9.26
2022-10-11T02:22:41.096Z,9.33
2022-10-11T02:25:10.876Z,9.26
2022-10-11T02:27:39.414Z,9.27
2022-10-11T02:30:08.165Z,9.26
2022-10-11T02:32:36.918Z,9.29
2022-10-11T02:35:04.920Z,9.30
2022-10-11T02:37:50.539Z,9.29
2022-10-11T02:40:40.311Z,9.30
2022-10-11T02:43:24.144Z,9.24
2022-10-11T02:45:54.360Z,9.21
2022-10-11T02:48:23.611Z,9.29
2022-10-11T02:50:51.268Z,9.24
2022-10-11T02:53:20.928Z,9.20
2022-10-11T02:55:49.405Z,9.20
2022-10-11T02:58:17.146Z,9.20
2022-10-11T03:00:44.853Z,9.21
2022-10-11T03:03:12.669Z,9.22
2022-10-11T03:05:42.108Z,9.18
2022-10-11T03:08:12.481Z,9.15
2022-10-11T03:10:41.400Z,9.08
2022-10-11T03:13:10.024Z,9.06
2022-10-11T03:15:40.165Z,9.03
2022-10-11T03:18:08.003Z,9.05
2022-10-11T03:20:37.420Z,8.98
2022-10-11T03:23:05.210Z,9.00
2022-10-11T03:25:32.857Z,8.98
2022-10-11T03:28:00.993Z,8.97
2022-10-11T03:30:28.863Z,9.00
2022-10-11T03:32:56.478Z,9.00
2022-10-11T03:35:24.121Z,8.94
2022-10-11T03:37:51.770Z,9.00
2022-10-11T03:40:19.401Z,8.98
2022-10-11T03:42:46.972Z,8.97
2022-10-11T03:45:14.721Z,8.94
2022-10-11T03:47:42.331Z,8.91
2022-10-11T03:50:10.117Z,8.98
2022-10-11T03:52:37.784Z,8.97
2022-10-11T03:55:06.589Z,8.97
2022-10-11T03:57:34.308Z,8.97
2022-10-11T04:00:02.169Z,8.98
2022-10-11T04:02:35.805Z,8.99
2022-10-11T04:05:07.277Z,8.92
2022-10-11T04:07:36.849Z,8.95
2022-10-11T04:10:05.292Z,9.03
2022-10-11T04:12:33.196Z,9.06
2022-10-11T04:15:01.629Z,9.06
2022-10-11T04:17:30.321Z,9.05
2022-10-11T04:19:58.018Z,9.06
2022-10-11T04:22:25.666Z,9.08
2022-10-11T04:24:54.293Z,9.06
2022-10-11T04:27:21.963Z,9.08
2022-10-11T04:29:49.674Z,9.08
2022-10-11T04:32:17.240Z,9.09
2022-10-11T04:34:44.992Z,9.08
2022-10-11T04:37:12.829Z,9.11
2022-10-11T04:39:40.410Z,9.13
2022-10-11T04:42:08.864Z,9.13
2022-10-11T04:44:37.241Z,9.16
2022-10-11T04:47:05.192Z,9.18
2022-10-11T04:49:32.955Z,9.15
2022-10-11T04:52:00.489Z,9.20
2022-10-11T04:54:28.635Z,9.18
2022-10-11T04:56:56.373Z,9.17
2022-10-11T04:59:24.735Z,9.24
2022-10-11T05:01:52.274Z,9.31
2022-10-11T05:04:20.001Z,9.29
2022-10-11T05:06:50.315Z,9.31
2022-10-11T05:09:17.921Z,9.38
2022-10-11T05:11:45.496Z,9.43
2022-10-11T05:14:13.226Z,9.41
2022-10-11T05:16:42.106Z,9.44
2022-10-11T05:19:10.484Z,9.44
2022-10-11T05:21:38.141Z,9.51
2022-10-11T05:24:06.374Z,9.46
2022-10-11T05:26:34.310Z,9.46
2022-10-11T05:29:01.927Z,9.46
2022-10-11T05:31:29.993Z,9.42
2022-10-11T05:33:57.713Z,9.47
2022-10-11T05:36:25.301Z,9.53
2022-10-11T05:38:53.449Z,9.45
2022-10-11T05:41:21.219Z,9.53
2022-10-11T05:43:48.899Z,9.51
2022-10-11T05:46:16.786Z,9.73
2022-10-11T05:48:44.405Z,9.78
2022-10-11T05:51:12.143Z,9.84
2022-10-11T05:53:39.969Z,9.92
2022-10-11T05:56:18.176Z,9.87
2022-10-11T05:58:46.313Z,9.93
2022-10-11T06:01:21.187Z,10.07
2022-10-11T06:03:48.827Z,10.19
2022-10-11T06:06:16.497Z,10.24
2022-10-11T06:08:44.381Z,10.14
2022-10-11T06:11:15.759Z,10.19
2022-10-11T06:13:44.561Z,10.17
2022-10-11T06:16:12.332Z,10.38
2022-10-11T06:18:40.062Z,10.23
2022-10-11T06:21:07.716Z,10.35
2022-10-11T06:23:35.489Z,10.33
2022-10-11T06:26:06.262Z,10.42
2022-10-11T06:28:34.956Z,10.43
2022-10-11T06:31:03.801Z,10.50
2022-10-11T06:33:31.681Z,10.61
2022-10-11T06:36:18.008Z,10.60
2022-10-11T06:38:46.303Z,10.74
2022-10-11T06:41:18.414Z,10.62
2022-10-11T06:43:51.335Z,10.65
2022-10-11T06:46:19.625Z,10.79
2022-10-11T06:48:47.760Z,10.84
2022-10-11T06:51:16.565Z,10.81
2022-10-11T06:53:44.203Z,10.83
2022-10-11T06:56:12.472Z,10.84
2022-10-11T06:58:40.007Z,10.75
2022-10-11T07:01:09.670Z,10.82
2022-10-11T07:03:37.236Z,10.71
2022-10-11T07:06:10.731Z,10.84
2022-10-11T07:08:39.513Z,10.92
2022-10-11T07:11:11.279Z,10.76
2022-10-11T07:13:38.944Z,10.55
2022-10-11T07:16:12.716Z,10.57
2022-10-11T07:18:40.450Z,10.53
2022-10-11T07:21:11.483Z,10.53
2022-10-11T07:23:39.398Z,10.70
2022-10-11T07:26:07.718Z,10.76
2022-10-11T07:28:36.162Z,10.90
2022-10-11T07:31:14.695Z,10.77
2022-10-11T07:33:42.596Z,10.71
2022-10-11T07:36:10.904Z,10.75
2022-10-11T07:38:40.627Z,10.65
2022-10-11T07:41:08.773Z,10.83
2022-10-11T07:43:37.153Z,11.07
2022-10-11T07:46:05.466Z,11.03
2022-10-11T07:48:34.196Z,11.15
2022-10-11T07:51:20.841Z,11.20
2022-10-11T07:53:52.703Z,11.33
2022-10-11T07:56:22.329Z,11.47
2022-10-11T07:58:51.644Z,11.56
2022-10-11T08:01:19.435Z,11.58
2022-10-11T08:03:47.209Z,11.59
2022-10-11T08:06:15.753Z,11.64
2022-10-11T08:08:43.405Z,11.65
2022-10-11T08:11:22.812Z,11.65
2022-10-11T08:13:52.487Z,11.83
2022-10-11T08:16:20.971Z,12.01
2022-10-11T08:18:48.644Z,11.96
2022-10-11T08:21:17.854Z,12.15
2022-10-11T08:23:45.551Z,12.19
2022-10-11T08:26:14.231Z,12.41
2022-10-11T08:28:41.996Z,12.59
2022-10-11T08:31:12.612Z,12.84
2022-10-11T08:33:40.637Z,12.89
2022-10-11T08:36:09.547Z,12.90
2022-10-11T08:38:38.146Z,12.97
2022-10-11T08:41:49.857Z,12.97
2022-10-11T08:44:23.496Z,12.92
2022-10-11T08:46:56.962Z,12.97
2022-10-11T08:49:29.832Z,12.96
2022-10-11T08:52:02.696Z,13.00
2022-10-11T08:54:43.193Z,13.11
2022-10-11T08:57:15.231Z,13.05
2022-10-11T08:59:47.668Z,12.98
2022-10-11T09:02:55.648Z,13.01
2022-10-11T09:05:21.709Z,13.34
2022-10-11T09:08:22.411Z,13.49
2022-10-11T09:11:00.042Z,13.52
2022-10-11T09:13:42.457Z,13.49
2022-10-11T09:16:34.676Z,13.67
2022-10-11T09:19:14.254Z,13.75
2022-10-11T09:22:18.597Z,13.76
2022-10-11T09:25:09.231Z,13.70
2022-10-11T09:28:03.177Z,13.77
2022-10-11T09:30:31.384Z,13.94
2022-10-11T09:33:13.504Z,13.99
2022-10-11T09:35:44.991Z,13.97
2022-10-11T09:38:24.644Z,14.08
2022-10-11T09:41:14.028Z,13.99
2022-10-11T09:43:44.839Z,13.78
2022-10-11T09:46:57.164Z,14.00
2022-10-11T09:49:47.610Z,14.22
2022-10-11T09:52:16.712Z,14.29
2022-10-11T09:54:46.094Z,14.55
2022-10-11T09:57:33.683Z,14.55
2022-10-11T10:00:20.755Z,14.33
2022-10-11T10:02:50.662Z,14.19
2022-10-11T10:05:25.410Z,14.56
2022-10-11T10:08:10.843Z,14.36
2022-10-11T10:10:59.559Z,14.33
2022-10-11T10:13:47.064Z,14.56
2022-10-11T10:16:26.102Z,14.75
2022-10-11T10:18:54.023Z,14.85
2022-10-11T10:21:28.919Z,14.95
2022-10-11T10:23:57.081Z,14.92
2022-10-11T10:26:26.014Z,14.65
2022-10-11T10:28:59.444Z,14.93
2022-10-11T10:31:54.981Z,14.52
2022-10-11T10:34:34.172Z,14.88
2022-10-11T10:37:35.539Z,14.93
2022-10-11T10:40:24.669Z,15.11
2022-10-11T10:42:52.396Z,15.09
2022-10-11T10:45:21.732Z,15.38
2022-10-11T10:48:01.948Z,15.48
2022-10-11T10:50:53.870Z,14.89
2022-10-11T10:53:23.729Z,15.06
2022-10-11T10:56:25.028Z,15.00
2022-10-11T10:58:56.674Z,15.15
2022-10-11T11:01:32.797Z,15.40
2022-10-11T11:04:15.461Z,15.57
2022-10-11T11:06:51.141Z,15.57
2022-10-11T11:09:25.660Z,15.47
2022-10-11T11:12:18.511Z,15.54
2022-10-11T11:14:56.593Z,15.46
2022-10-11T11:17:42.732Z,15.66
2022-10-11T11:20:40.850Z,15.65
2022-10-11T11:23:23.838Z,15.57
2022-10-11T11:26:22.704Z,15.76
2022-10-11T11:28:56.326Z,15.70
2022-10-11T11:31:33.076Z,15.67
2022-10-11T11:34:38.523Z,15.65
2022-10-11T11:37:19.320Z,15.73
2022-10-11T11:39:49.609Z,15.86
2022-10-11T11:42:26.209Z,16.32
2022-10-11T11:44:53.728Z,16.32
2022-10-11T11:47:32.640Z,16.33
2022-10-11T11:50:03.656Z,16.11
2022-10-11T11:52:39.936Z,16.37
2022-10-11T11:55:28.036Z,16.61
2022-10-11T11:58:14.440Z,16.87
2022-10-11T12:00:54.532Z,17.05
2022-10-11T12:03:25.725Z,17.16
2022-10-11T12:06:12.226Z,16.59
2022-10-11T12:08:56.377Z,16.33
2022-10-11T12:11:37.329Z,16.59
2022-10-11T12:14:22.386Z,17.02
2022-10-11T12:17:12.687Z,17.33
2022-10-11T12:19:42.431Z,17.36
2022-10-11T12:22:29.141Z,16.83
2022-10-11T12:25:00.882Z,16.79
2022-10-11T12:27:44.715Z,16.87
2022-10-11T12:30:53.605Z,16.34
2022-10-11T12:33:26.412Z,16.19
2022-10-11T12:35:54.008Z,16.02
2022-10-11T12:38:24.509Z,15.71
2022-10-11T12:41:08.542Z,15.61
2022-10-11T12:43:57.226Z,15.76
2022-10-11T12:46:33.896Z,15.83
2022-10-11T12:49:16.927Z,15.88
2022-10-11T12:52:18.472Z,15.73
2022-10-11T12:54:51.583Z,15.80
2022-10-11T12:57:53.181Z,16.17
2022-10-11T13:00:28.165Z,16.33
2022-10-11T13:03:03.598Z,16.20
2022-10-11T13:05:45.186Z,16.03
2022-10-11T13:08:21.677Z,16.08
2022-10-11T13:10:51.371Z,16.61
2022-10-11T13:13:27.019Z,16.68
2022-10-11T13:15:56.743Z,16.87
2022-10-11T13:18:25.341Z,16.69
2022-10-11T13:20:55.087Z,16.35
2022-10-11T13:23:34.676Z,16.07
2022-10-11T13:26:28.156Z,15.87
2022-10-11T13:28:56.481Z,15.73
2022-10-11T13:31:25.141Z,15.74
2022-10-11T13:33:55.227Z,15.89
2022-10-11T13:36:24.708Z,15.84
2022-10-11T13:38:59.776Z,15.72
2022-10-11T13:41:29.966Z,15.91
2022-10-11T13:43:58.509Z,15.83
2022-10-11T13:46:27.111Z,15.68
2022-10-11T13:49:03.382Z,15.58
2022-10-11T13:51:35.195Z,15.51
2022-10-11T13:54:10.405Z,15.42
2022-10-11T13:56:46.705Z,15.55
2022-10-11T13:59:24.896Z,15.56
2022-10-11T14:01:57.907Z,15.37
2022-10-11T14:04:29.469Z,15.34
2022-10-11T14:06:58.745Z,15.27
2022-10-11T14:09:30.548Z,15.15
2022-10-11T14:12:26.072Z,15.12
2022-10-11T14:14:53.629Z,15.01
2022-10-11T14:17:22.448Z,14.93
2022-10-11T14:20:11.959Z,14.93
2022-10-11T14:22:40.396Z,14.81
2022-10-11T14:25:08.053Z,14.83
2022-10-11T14:27:37.031Z,14.78
2022-10-11T14:30:27.417Z,14.73
2022-10-11T14:32:56.469Z,14.73
2022-10-11T14:35:30.062Z,14.61
2022-10-11T14:37:57.654Z,14.57
2022-10-11T14:40:27.109Z,14.56
2022-10-11T14:42:55.145Z,14.54
2022-10-11T14:45:22.736Z,14.46
2022-10-11T14:47:51.053Z,14.47
2022-10-11T14:50:27.830Z,14.44
2022-10-11T14:52:55.712Z,14.40
2022-10-11T14:55:23.588Z,14.32
2022-10-11T14:57:51.286Z,14.35
2022-10-11T15:00:20.727Z,14.28
2022-10-11T15:02:49.649Z,14.23
2022-10-11T15:05:17.240Z,14.31
2022-10-11T15:07:44.829Z,14.26
2022-10-11T15:10:23.172Z,14.17
2022-10-11T15:12:51.271Z,14.07
2022-10-11T15:15:21.225Z,14.00
2022-10-11T15:17:53.712Z,13.99
2022-10-11T15:20:41.413Z,13.81
2022-10-11T15:23:12.394Z,13.75
2022-10-11T15:25:40.663Z,13.75
2022-10-11T15:28:08.856Z,13.65
2022-10-11T15:30:41.265Z,13.67
2022-10-11T15:33:10.018Z,13.62
2022-10-11T15:35:37.573Z,13.59
2022-10-11T15:38:05.137Z,13.61
2022-10-11T15:40:37.086Z,13.58
2022-10-11T15:43:04.741Z,13.53
2022-10-11T15:45:32.391Z,13.54
2022-10-11T15:48:00.723Z,13.55
2022-10-11T15:50:34.608Z,13.49
2022-10-11T15:53:05.328Z,13.50
2022-10-11T15:55:34.232Z,13.41
2022-10-11T15:58:02.277Z,13.38
2022-10-11T16:00:30.228Z,13.36
2022-10-11T16:02:58.425Z,13.34
2022-10-11T16:05:26.853Z,13.36
2022-10-11T16:07:54.468Z,13.35
2022-10-11T16:10:22.158Z,13.36
2022-10-11T16:12:50.189Z,13.41
2022-10-11T16:15:17.933Z,13.37
2022-10-11T16:17:47.459Z,13.38
2022-10-11T16:20:15.927Z,13.33
2022-10-11T16:22:43.748Z,13.32
2022-10-11T16:25:13.016Z,13.31
2022-10-11T16:27:41.364Z,13.24
2022-10-11T16:30:12.005Z,13.17
2022-10-11T16:32:41.143Z,13.25
2022-10-11T16:35:09.230Z,13.16
2022-10-11T16:37:36.802Z,13.16
2022-10-11T16:40:08.491Z,13.16
2022-10-11T16:42:37.769Z,13.13
2022-10-11T16:45:06.636Z,13.20
2022-10-11T16:47:34.505Z,13.21
2022-10-11T16:50:02.239Z,13.15
2022-10-11T16:52:30.455Z,13.11
2022-10-11T16:54:58.205Z,13.14
2022-10-11T16:57:25.833Z,13.15
2022-10-11T16:59:53.431Z,13.05
2022-10-11T17:02:28.755Z,13.06
2022-10-11T17:04:59.851Z,13.04
2022-10-11T17:07:28.642Z,13.05
2022-10-11T17:09:56.333Z,13.05
2022-10-11T17:12:24.447Z,13.11
2022-10-11T17:14:55.559Z,13.12
2022-10-11T17:17:23.104Z,13.07
2022-10-11T17:19:50.654Z,13.03
2022-10-11T17:22:19.034Z,13.12
2022-10-11T17:24:47.558Z,13.09
2022-10-11T17:27:15.218Z,13.08
2022-10-11T17:29:42.820Z,13.10
2022-10-11T17:32:10.462Z,13.03
2022-10-11T17:34:38.163Z,13.04
2022-10-11T17:37:06.285Z,13.05
2022-10-11T17:39:34.248Z,13.07
2022-10-11T17:42:07.359Z,13.07
2022-10-11T17:44:36.247Z,13.06
2022-10-11T17:47:04.336Z,13.06
2022-10-11T17:49:33.569Z,13.10
2022-10-11T17:52:01.368Z,13.07
2022-10-11T17:54:28.957Z,13.07
2022-10-11T17:56:58.856Z,13.00
2022-10-11T17:59:30.767Z,13.01
2022-10-11T18:01:58.541Z,13.05
2022-10-11T18:04:29.604Z,12.96
2022-10-11T18:06:57.339Z,13.01
2022-10-11T18:09:42.021Z,12.94
2022-10-11T18:12:10.488Z,12.92
2022-10-11T18:14:38.117Z,12.91
2022-10-11T18:17:05.774Z,12.95
2022-10-11T18:19:33.611Z,12.94
2022-10-11T18:22:05.979Z,12.88
2022-10-11T18:24:34.997Z,12.87
2022-10-11T18:27:02.706Z,12.81
2022-10-11T18:29:30.935Z,12.84
2022-10-11T18:31:58.590Z,12.82
2022-10-11T18:34:26.372Z,12.82
2022-10-11T18:36:54.017Z,12.82
2022-10-11T18:39:22.224Z,12.76
2022-10-11T18:41:49.957Z,12.73
2022-10-11T18:44:17.584Z,12.71
2022-10-11T18:46:45.391Z,12.67
2022-10-11T18:49:13.674Z,12.63
2022-10-11T18:51:42.151Z,12.55
2022-10-11T18:54:13.892Z,12.55
2022-10-11T18:56:45.455Z,12.50
2022-10-11T18:59:13.230Z,12.47
2022-10-11T19:01:42.212Z,12.49
2022-10-11T19:04:10.625Z,12.41
2022-10-11T19:06:39.930Z,12.31
2022-10-11T19:09:11.890Z,12.27
2022-10-11T19:11:41.929Z,12.18
2022-10-11T19:14:11.859Z,12.19
2022-10-11T19:16:45.597Z,12.06
2022-10-11T19:19:13.342Z,12.08
2022-10-11T19:21:40.960Z,12.02
2022-10-11T19:24:09.060Z,11.91
2022-10-11T19:26:38.741Z,11.80
2022-10-11T19:29:11.643Z,11.67
2022-10-11T19:31:44.698Z,11.63
2022-10-11T19:34:12.280Z,11.46
2022-10-11T19:36:42.409Z,11.31
2022-10-11T19:39:14.200Z,11.21
2022-10-11T19:41:42.088Z,11.02
2022-10-11T19:44:11.014Z,10.94
2022-10-11T19:46:51.096Z,10.84
2022-10-11T19:49:22.867Z,10.65
2022-10-11T19:51:50.962Z,10.48
2022-10-11T19:54:18.615Z,10.50
2022-10-11T19:56:47.179Z,10.39
2022-10-11T19:59:15.109Z,10.23
2022-10-11T20:01:45.500Z,10.06
2022-10-11T20:04:39.548Z,9.95
2022-10-11T20:07:03.592Z,9.81
2022-10-11T20:09:31.586Z,9.73
2022-10-11T20:11:59.208Z,9.71
2022-10-11T20:14:26.880Z,9.60
2022-10-11T20:16:54.615Z,9.50
2022-10-11T20:19:27.868Z,9.42
2022-10-11T20:21:58.135Z,9.30
2022-10-11T20:24:29.033Z,9.22
2022-10-11T20:26:56.715Z,9.13
2022-10-11T20:29:25.569Z,9.14
2022-10-11T20:31:53.372Z,9.02
2022-10-11T20:34:20.993Z,9.04
2022-10-11T20:36:49.472Z,8.94
2022-10-11T20:39:18.022Z,8.83
2022-10-11T20:41:45.755Z,8.75
2022-10-11T20:44:16.011Z,8.68
2022-10-11T20:46:43.668Z,8.63
2022-10-11T20:49:11.612Z,8.61
2022-10-11T20:51:41.623Z,8.50
2022-10-11T20:54:10.878Z,8.41
2022-10-11T20:56:39.256Z,8.31
2022-10-11T20:59:07.021Z,8.31
2022-10-11T21:01:37.301Z,8.16
2022-10-11T21:04:05.386Z,8.12
2022-10-11T21:06:33.524Z,8.09
2022-10-11T21:09:01.351Z,7.97
2022-10-11T21:11:31.317Z,7.93
2022-10-11T21:13:59.989Z,7.84
2022-10-11T21:16:32.452Z,7.82
2022-10-11T21:19:00.621Z,7.81
2022-10-11T21:21:28.663Z,7.71
2022-10-11T21:23:57.091Z,7.69
2022-10-11T21:26:24.738Z,7.65
2022-10-11T21:28:54.293Z,7.59
2022-10-11T21:31:22.417Z,7.52
2022-10-11T21:33:50.865Z,7.44
2022-10-11T21:36:20.063Z,7.40
2022-10-11T21:38:48.148Z,7.35
2022-10-11T21:41:20.608Z,7.30
2022-10-11T21:43:48.354Z,7.24
2022-10-11T21:46:47.517Z,7.17
2022-10-11T21:49:15.168Z,7.02
2022-10-11T21:51:43.862Z,6.96
2022-10-11T21:54:11.721Z,7.01
2022-10-11T21:56:39.321Z,6.98
2022-10-11T21:59:11.030Z,6.89
2022-10-11T22:01:40.917Z,6.85
2022-10-11T22:04:09.639Z,6.80
2022-10-11T22:06:38.155Z,6.75
2022-10-11T22:09:06.639Z,6.68
2022-10-11T22:11:34.650Z,6.65
2022-10-11T22:14:03.335Z,6.60
2022-10-11T22:16:31.119Z,6.50
2022-10-11T22:19:00.171Z,6.43
2022-10-11T22:21:28.126Z,6.42
2022-10-11T22:23:56.145Z,6.43
2022-10-11T22:26:26.148Z,6.37
2022-10-11T22:28:53.954Z,6.27
2022-10-11T22:31:22.048Z,6.25
2022-10-11T22:33:53.351Z,6.19
2022-10-11T22:36:20.903Z,6.24
2022-10-11T22:38:49.534Z,6.21
2022-10-11T22:41:17.303Z,6.20
2022-10-11T22:43:45.522Z,6.12
2022-10-11T22:46:13.464Z,6.09
2022-10-11T22:48:41.043Z,6.06
2022-10-11T22:51:08.633Z,6.10
2022-10-11T22:53:36.381Z,6.03
2022-10-11T22:56:04.371Z,6.00
2022-10-11T22:58:34.345Z,5.89
2022-10-11T23:01:09.277Z,5.84
2022-10-11T23:03:37.052Z,5.81
2022-10-11T23:06:05.337Z,5.82
2022-10-11T23:08:33.064Z,5.81
2022-10-11T23:11:07.414Z,5.75
2022-10-11T23:13:35.204Z,5.68
2022-10-11T23:16:08.588Z,5.63
2022-10-11T23:18:42.221Z,5.62
2022-10-11T23:21:13.307Z,5.65
2022-10-11T23:23:41.127Z,5.55
2022-10-11T23:26:12.053Z,5.51
2022-10-11T23:28:39.676Z,5.54
2022-10-11T23:31:16.778Z,5.54
2022-10-11T23:33:45.161Z,5.56
2022-10-11T23:36:25.476Z,5.55
2022-10-11T23:38:54.698Z,5.55
2022-10-11T23:41:23.397Z,5.47
2022-10-11T23:43:51.205Z,5.50
2022-10-11T23:46:18.883Z,5.49
2022-10-11T23:48:47.005Z,5.46
2022-10-11T23:51:14.738Z,5.42
2022-10-11T23:53:42.438Z,5.38
2022-10-11T23:56:10.319Z,5.35
2022-10-11T23:58:38.274Z,5.35
